Time;durP1;ratioP1;P1;durP2;ratioP2;P2;SDS_P1;SDS_P2;PMS_P1;PMS_P2;Temp;Humidity;BMP_temperature;BMP_pressure;BME280_temperature;BME280_humidity;BME280_pressure;Samples;Min_cycle;Max_cycle;Signal;HPM_P1;HPM_P2
2023/01/27 00:00:35;;;;;;;11.70;4.47;;;;;;;4.39;94.01;102883.59;5048480;28;20044;-44
2023/01/27 00:03:01;;;;;;;6.97;3.45;;;;;;;4.38;93.94;102876.44;5048536;28;20057;-44
2023/01/27 00:05:28;;;;;;;8.95;3.88;;;;;;;4.34;93.69;102870.66;5048498;28;20384;-45
2023/01/27 00:07:57;;;;;;;14.70;4.93;;;;;;;4.31;93.85;102861.00;5050617;28;20068;-49
2023/01/27 00:10:24;;;;;;;7.25;3.35;;;;;;;4.30;94.23;102864.84;5048293;28;20482;-44
2023/01/27 00:15:37;;;;;;;8.52;2.88;;;;;;;4.22;93.91;102861.69;5048232;28;20399;-43
2023/01/27 00:18:04;;;;;;;5.85;2.90;;;;;;;4.19;94.22;102870.41;5048394;28;20494;-46
2023/01/27 00:26:09;;;;;;;5.55;2.45;;;;;;;4.08;94.49;102861.19;5048703;28;20499;-44
2023/01/27 00:28:37;;;;;;;7.47;2.40;;;;;;;4.08;94.28;102866.66;5030387;28;20411;-43
2023/01/27 00:31:08;;;;;;;9.90;3.60;;;;;;;4.03;94.43;102863.84;5048245;28;20048;-45
2023/01/27 00:33:35;;;;;;;7.18;2.80;;;;;;;4.02;94.19;102855.91;5011864;28;20055;-47
2023/01/27 00:36:05;;;;;;;4.05;2.90;;;;;;;3.99;94.28;102849.00;5048442;28;20049;-44
2023/01/27 00:38:33;;;;;;;7.60;2.88;;;;;;;3.95;94.34;102845.09;5059748;28;20079;-45
2023/01/27 00:41:19;;;;;;;5.53;2.75;;;;;;;3.92;94.35;102834.63;5048736;28;20056;-43
2023/01/27 00:43:47;;;;;;;4.43;2.65;;;;;;;3.90;94.74;102831.31;5048415;28;20053;-48
2023/01/27 00:46:16;;;;;;;4.72;2.33;;;;;;;3.90;94.59;102828.56;5047882;28;20059;-44
2023/01/27 00:48:43;;;;;;;7.78;2.83;;;;;;;3.89;94.74;102818.69;5047916;28;20495;-44
2023/01/27 00:51:10;;;;;;;6.68;2.63;;;;;;;3.86;94.95;102819.19;5047784;28;20380;-43
2023/01/27 00:53:37;;;;;;;6.80;2.60;;;;;;;3.86;94.58;102818.38;5047903;28;20041;-44
2023/01/27 00:56:04;;;;;;;9.23;2.75;;;;;;;3.81;94.83;102810.91;5048162;28;20062;-43
2023/01/27 00:58:31;;;;;;;4.35;2.58;;;;;;;3.79;94.80;102807.56;5047642;28;20449;-44
2023/01/27 01:01:00;;;;;;;5.55;2.33;;;;;;;3.75;94.92;102809.16;5047273;28;20044;-44
2023/01/27 01:03:31;;;;;;;6.95;2.67;;;;;;;3.73;94.97;102808.59;5029898;28;20037;-43
2023/01/27 01:06:04;;;;;;;6.10;2.22;;;;;;;3.75;95.11;102805.59;5047619;28;20544;-48
2023/01/27 01:08:32;;;;;;;6.75;2.47;;;;;;;3.73;95.08;102808.59;5050529;28;20072;-43
2023/01/27 01:10:59;;;;;;;5.63;2.92;;;;;;;3.69;94.94;102793.72;5029338;28;20049;-44
2023/01/27 01:13:27;;;;;;;6.22;2.58;;;;;;;3.67;94.94;102795.88;5047741;28;20049;-45
2023/01/27 01:15:54;;;;;;;9.23;3.15;;;;;;;3.65;95.04;102796.09;5047384;28;20045;-51
2023/01/27 01:18:23;;;;;;;5.30;2.67;;;;;;;3.65;95.22;102800.78;5048058;28;20087;-43
2023/01/27 01:20:49;;;;;;;4.88;2.28;;;;;;;3.66;95.36;102796.94;5028834;28;20078;-44
2023/01/27 01:23:16;;;;;;;11.75;2.42;;;;;;;3.66;95.35;102795.03;5029969;28;20044;-44
2023/01/27 01:25:52;;;;;;;7.18;3.03;;;;;;;3.66;95.58;102786.81;5047066;28;20049;-43
2023/01/27 01:28:18;;;;;;;10.07;4.15;;;;;;;3.67;95.33;102776.69;5047149;28;20373;-49
2023/01/27 01:30:45;;;;;;;10.43;3.03;;;;;;;3.66;95.35;102783.25;5016477;28;20052;-51
2023/01/27 01:33:12;;;;;;;6.55;2.85;;;;;;;3.63;95.44;102781.84;5047418;28;20049;-46
2023/01/27 01:35:39;;;;;;;7.35;3.25;;;;;;;3.65;95.40;102784.34;5047193;28;20433;-43
2023/01/27 01:38:05;;;;;;;5.35;2.70;;;;;;;3.63;95.39;102786.47;5059023;28;20051;-43
2023/01/27 01:40:32;;;;;;;6.15;2.13;;;;;;;3.61;95.58;102788.66;5047302;28;20049;-44
2023/01/27 01:43:02;;;;;;;4.95;3.10;;;;;;;3.59;95.50;102786.16;5046535;28;20049;-51
2023/01/27 01:45:35;;;;;;;7.47;3.83;;;;;;;3.56;95.52;102785.81;5046038;28;20045;-43
2023/01/27 01:48:10;;;;;;;6.13;2.78;;;;;;;3.55;95.71;102785.00;5046943;28;20067;-48
2023/01/27 01:50:41;;;;;;;5.63;3.30;;;;;;;3.53;95.75;102786.31;5029403;28;20521;-45
2023/01/27 01:53:09;;;;;;;8.00;3.55;;;;;;;3.51;95.49;102777.53;5045183;28;20037;-43
2023/01/27 01:55:38;;;;;;;7.88;3.10;;;;;;;3.51;95.53;102788.47;5047083;28;20098;-43
2023/01/27 01:58:07;;;;;;;5.90;3.10;;;;;;;3.52;95.83;102779.19;5046724;28;20136;-43
2023/01/27 02:00:33;;;;;;;6.85;2.65;;;;;;;3.53;95.88;102786.31;5029044;28;20137;-43
2023/01/27 02:03:02;;;;;;;7.20;3.13;;;;;;;3.52;95.97;102774.53;5046921;28;20048;-43
2023/01/27 02:05:33;;;;;;;11.65;3.33;;;;;;;3.51;96.20;102774.78;5047001;28;20055;-43
2023/01/27 02:08:08;;;;;;;10.07;3.97;;;;;;;3.46;96.10;102759.13;5051041;28;20081;-44
2023/01/27 02:10:35;;;;;;;8.50;3.90;;;;;;;3.44;95.83;102757.72;5046288;28;20047;-43
2023/01/27 02:13:02;;;;;;;11.43;3.60;;;;;;;3.42;96.27;102759.84;5046731;28;20518;-45
2023/01/27 02:15:31;;;;;;;9.50;4.10;;;;;;;3.41;95.83;102755.47;5047179;28;20079;-43
2023/01/27 02:18:00;;;;;;;16.60;5.80;;;;;;;3.40;96.42;102753.78;5046858;28;20341;-43
2023/01/27 02:20:30;;;;;;;7.40;3.70;;;;;;;3.36;96.28;102758.13;5046187;28;20469;-43
2023/01/27 02:23:15;;;;;;;10.80;4.45;;;;;;;3.36;96.50;102758.91;5046593;28;20437;-48
2023/01/27 02:25:57;;;;;;;12.18;4.65;;;;;;;3.37;96.57;102748.81;5046582;28;20515;-43
2023/01/27 02:28:29;;;;;;;14.07;4.65;;;;;;;3.36;96.33;102758.13;5046580;28;20053;-43
2023/01/27 02:30:56;;;;;;;14.75;5.30;;;;;;;3.33;96.11;102747.66;5046716;28;20064;-43
2023/01/27 02:33:24;;;;;;;9.25;5.45;;;;;;;3.32;96.43;102746.00;5046329;28;20554;-43
2023/01/27 02:36:09;;;;;;;12.07;4.50;;;;;;;3.29;96.33;102752.78;5046237;28;20072;-47
2023/01/27 02:38:41;;;;;;;9.35;4.57;;;;;;;3.27;96.18;102748.63;5058236;28;20037;-48
2023/01/27 02:41:10;;;;;;;9.40;4.38;;;;;;;3.25;96.28;102746.16;5046351;28;20075;-44
2023/01/27 02:43:37;;;;;;;9.82;4.28;;;;;;;3.27;96.82;102751.38;5046579;28;20490;-45
2023/01/27 02:46:04;;;;;;;6.93;3.20;;;;;;;3.28;96.94;102739.38;5046150;28;20041;-44
2023/01/27 02:48:30;;;;;;;12.65;4.30;;;;;;;3.25;96.74;102739.84;5028441;28;20067;-43
2023/01/27 02:50:57;;;;;;;9.88;3.25;;;;;;;3.24;96.54;102738.19;5046365;28;20049;-46
2023/01/27 02:53:24;;;;;;;14.65;4.07;;;;;;;3.23;96.77;102742.81;5033300;28;20449;-44
2023/01/27 02:55:51;;;;;;;9.70;3.65;;;;;;;3.22;97.03;102740.34;5047105;28;20071;-44
2023/01/27 02:58:17;;;;;;;8.77;3.90;;;;;;;3.21;97.12;102742.25;5049914;28;20048;-45
2023/01/27 03:00:44;;;;;;;8.17;3.40;;;;;;;3.23;97.03;102747.50;5041892;22;1336010;-43
2023/01/27 03:03:11;;;;;;;8.23;3.53;;;;;;;3.24;97.30;102749.97;5050230;28;20397;-43
2023/01/27 03:05:38;;;;;;;10.93;4.40;;;;;;;3.28;97.23;102747.56;5049900;28;20545;-43
2023/01/27 03:08:04;;;;;;;16.63;3.95;;;;;;;3.31;97.38;102752.56;5035579;28;20448;-42
2023/01/27 03:10:31;;;;;;;9.38;4.35;;;;;;;3.31;97.02;102756.09;5049555;28;20056;-43
2023/01/27 03:12:57;;;;;;;11.13;4.07;;;;;;;3.32;97.47;102751.47;5049862;28;20041;-43
2023/01/27 03:18:15;;;;;;;9.15;4.97;;;;;;;3.33;97.48;102736.72;5050391;28;20049;-46
2023/01/27 03:20:45;;;;;;;12.85;4.60;;;;;;;3.34;97.23;102739.19;5049543;28;20045;-42
2023/01/27 03:23:13;;;;;;;7.43;3.92;;;;;;;3.35;97.32;102734.53;5049741;28;20486;-42
2023/01/27 03:25:42;;;;;;;8.50;4.13;;;;;;;3.33;97.40;102733.97;5049833;28;20064;-42
2023/01/27 03:28:09;;;;;;;7.80;4.38;;;;;;;3.30;97.27;102721.63;5049927;28;20036;-42
2023/01/27 03:30:37;;;;;;;7.53;4.18;;;;;;;3.30;97.16;102716.13;5049332;28;20540;-47
2023/01/27 03:33:05;;;;;;;9.52;4.55;;;;;;;3.29;97.31;102716.38;5039927;28;20216;-42
2023/01/27 03:35:47;;;;;;;17.05;4.93;;;;;;;3.24;97.22;102708.91;5036172;28;20032;-47
2023/01/27 03:46:34;;;;;;;8.52;4.07;;;;;;;3.11;97.73;102711.13;5049125;28;20048;-45
2023/01/27 03:49:01;;;;;;;11.50;4.93;;;;;;;3.11;97.59;102711.97;5049407;28;20049;-42
2023/01/27 03:51:27;;;;;;;13.93;4.57;;;;;;;3.14;97.94;102716.13;5048170;28;20083;-42
2023/01/27 03:53:54;;;;;;;8.63;4.97;;;;;;;3.19;97.96;102708.00;5049473;28;20172;-43
2023/01/27 03:56:21;;;;;;;7.90;4.22;;;;;;;3.25;97.84;102707.00;5048896;28;20051;-42
2023/01/27 03:58:49;;;;;;;11.55;5.35;;;;;;;3.28;97.63;102714.72;5049024;28;20052;-42
2023/01/27 04:01:19;;;;;;;9.68;4.28;;;;;;;3.29;97.64;102713.63;5048890;28;20055;-48
2023/01/27 04:09:39;;;;;;;8.57;4.82;;;;;;;3.32;98.01;102708.50;4967784;28;20043;-42
2023/01/27 04:12:06;;;;;;;12.55;5.60;;;;;;;3.33;98.01;102714.81;4966895;28;20042;-42
2023/01/27 04:14:42;;;;;;;10.77;5.03;;;;;;;3.39;98.02;102714.63;5005418;28;20041;-42
2023/01/27 04:17:12;;;;;;;10.93;5.93;;;;;;;3.42;97.71;102714.13;5030868;28;20132;-42
2023/01/27 04:19:40;;;;;;;10.43;5.10;;;;;;;3.44;97.82;102705.69;5048752;28;20076;-42
2023/01/27 04:22:08;;;;;;;13.40;7.20;;;;;;;3.44;97.66;102706.50;5048549;28;20045;-44
2023/01/27 04:24:35;;;;;;;8.50;5.18;;;;;;;3.46;97.96;102709.84;5048564;28;20040;-42
2023/01/27 04:27:05;;;;;;;13.68;5.50;;;;;;;3.50;97.99;102705.50;5048538;28;20148;-42
2023/01/27 04:29:34;;;;;;;8.57;4.72;;;;;;;3.53;97.80;102706.91;5030430;28;20079;-46
2023/01/27 04:32:04;;;;;;;10.90;4.70;;;;;;;3.52;97.99;102705.28;5047599;28;20069;-42
2023/01/27 04:34:31;;;;;;;9.40;5.30;;;;;;;3.49;98.15;102694.81;5039950;28;20045;-44
2023/01/27 04:36:58;;;;;;;12.02;5.25;;;;;;;3.47;97.94;102703.25;5050981;28;20052;-42
2023/01/27 04:39:25;;;;;;;8.70;4.75;;;;;;;3.50;98.26;102693.72;5056188;28;20077;-42
2023/01/27 04:41:52;;;;;;;13.85;5.68;;;;;;;3.47;98.38;102706.00;5048297;28;20055;-48
2023/01/27 04:44:19;;;;;;;10.75;4.82;;;;;;;3.52;98.04;102703.34;5048842;28;20080;-42
2023/01/27 04:46:46;;;;;;;8.38;4.53;;;;;;;3.54;98.27;102700.34;5047454;28;20774;-43
2023/01/27 04:49:13;;;;;;;7.82;4.65;;;;;;;3.55;98.08;102712.94;5048167;28;20052;-42
2023/01/27 04:51:40;;;;;;;10.40;4.15;;;;;;;3.57;98.43;102708.09;5047647;28;20139;-42
2023/01/27 04:54:06;;;;;;;8.90;4.13;;;;;;;3.58;98.16;102709.72;5043617;28;20055;-43
2023/01/27 04:56:35;;;;;;;12.30;4.80;;;;;;;3.58;98.18;102718.78;5041650;28;20502;-42
2023/01/27 04:59:13;;;;;;;9.48;4.68;;;;;;;3.58;98.32;102712.47;5048652;28;20079;-42
2023/01/27 05:01:44;;;;;;;9.25;4.00;;;;;;;3.59;98.45;102716.88;5061405;28;20060;-42
2023/01/27 05:04:11;;;;;;;9.65;4.32;;;;;;;3.63;98.33;102718.00;5048575;28;20047;-42
2023/01/27 05:06:39;;;;;;;11.05;5.03;;;;;;;3.64;98.43;102705.97;5049337;28;20506;-42
2023/01/27 05:09:07;;;;;;;7.72;4.10;;;;;;;3.61;98.39;102709.22;5059722;28;20049;-42
2023/01/27 05:11:36;;;;;;;6.65;4.07;;;;;;;3.59;98.52;102698.53;5031202;28;20052;-42
2023/01/27 05:14:05;;;;;;;16.88;3.92;;;;;;;3.58;97.95;102712.47;5049331;28;20102;-45
2023/01/27 05:16:33;;;;;;;7.93;3.72;;;;;;;3.59;98.58;102708.66;5048680;28;20131;-48
2023/01/27 05:19:01;;;;;;;11.25;5.15;;;;;;;3.61;98.65;102717.44;5048228;28;20056;-42
2023/01/27 05:21:27;;;;;;;6.80;3.55;;;;;;;3.62;98.55;102716.38;5031073;28;20049;-42
2023/01/27 05:23:54;;;;;;;6.50;3.47;;;;;;;3.61;98.68;102720.19;5048677;28;20074;-42
2023/01/27 05:26:26;;;;;;;7.68;3.63;;;;;;;3.60;98.28;102719.34;5049221;28;20057;-42
2023/01/27 05:28:56;;;;;;;10.95;4.13;;;;;;;3.61;98.65;102711.97;5048968;28;20642;-42
2023/01/27 05:31:26;;;;;;;11.85;4.90;;;;;;;3.60;98.74;102710.31;5048450;28;21015;-43
2023/01/27 05:33:54;;;;;;;8.40;4.10;;;;;;;3.58;98.83;102709.72;5038745;28;20514;-45
2023/01/27 05:36:23;;;;;;;18.60;5.35;;;;;;;3.58;98.67;102713.28;5015042;28;20049;-42
2023/01/27 05:38:50;;;;;;;5.53;4.38;;;;;;;3.59;98.60;102708.66;5042014;28;20055;-42
2023/01/27 05:41:18;;;;;;;12.32;3.92;;;;;;;3.58;98.53;102712.47;5030701;28;20095;-43
2023/01/27 05:43:50;;;;;;;10.02;4.03;;;;;;;3.58;98.84;102709.72;5048090;28;20049;-43
2023/01/27 05:46:25;;;;;;;9.55;4.35;;;;;;;3.58;98.55;102717.94;5048216;28;20040;-48
2023/01/27 05:48:54;;;;;;;10.65;3.95;;;;;;;3.58;98.57;102716.03;5048213;28;20075;-42
2023/01/27 05:51:23;;;;;;;8.60;4.40;;;;;;;3.60;98.58;102711.13;5051761;28;20048;-44
2023/01/27 05:53:50;;;;;;;9.35;4.10;;;;;;;3.61;98.86;102714.69;5058663;28;20506;-43
2023/01/27 05:56:17;;;;;;;7.60;3.63;;;;;;;3.63;98.80;102715.28;5048012;28;20041;-42
2023/01/27 05:58:44;;;;;;;8.70;4.00;;;;;;;3.63;98.41;102713.38;5048238;28;20049;-42
2023/01/27 06:01:19;;;;;;;9.55;4.28;;;;;;;3.63;98.47;102710.63;5048253;28;20063;-45
2023/01/27 06:03:47;;;;;;;7.13;4.20;;;;;;;3.62;98.57;102709.00;5048501;28;20132;-42
2023/01/27 06:06:16;;;;;;;11.27;4.30;;;;;;;3.60;98.57;102715.78;5048404;28;20073;-42
2023/01/27 06:08:46;;;;;;;8.00;3.83;;;;;;;3.60;98.76;102710.31;5052868;28;20134;-42
2023/01/27 06:11:14;;;;;;;7.97;4.05;;;;;;;3.60;98.43;102715.78;5048029;28;20048;-42
2023/01/27 06:13:41;;;;;;;7.38;3.72;;;;;;;3.60;98.42;102707.59;5048122;28;20392;-45
2023/01/27 06:16:11;;;;;;;12.00;4.88;;;;;;;3.60;98.66;102704.84;5048238;28;20144;-43
2023/01/27 06:18:40;;;;;;;;;;;;;;;3.60;98.53;102716.59;5048579;28;20099;-42
2023/01/27 06:21:09;;;;;;;8.75;4.18;;;;;;;3.58;98.62;102716.03;5047923;28;19932;-43
2023/01/27 06:23:36;;;;;;;9.40;5.28;;;;;;;3.58;98.52;102710.56;5048204;28;20068;-42
2023/01/27 06:26:06;;;;;;;7.68;4.47;;;;;;;3.58;98.29;102707.81;5056164;28;20406;-43
2023/01/27 06:28:32;;;;;;;9.60;4.13;;;;;;;3.61;98.39;102707.31;5051776;28;20045;-43
2023/01/27 06:31:18;;;;;;;8.52;4.88;;;;;;;3.61;97.98;102712.78;5048625;28;20076;-44
2023/01/27 06:33:45;;;;;;;8.25;4.03;;;;;;;3.58;98.58;102704.25;5041160;28;20444;-42
2023/01/27 06:36:14;;;;;;;9.50;4.45;;;;;;;3.58;98.49;102706.97;5052106;28;20048;-42
2023/01/27 06:38:41;;;;;;;8.10;4.75;;;;;;;3.56;98.44;102704.50;5062702;28;20041;-46
2023/01/27 06:41:08;;;;;;;15.52;5.45;;;;;;;3.57;98.26;102716.28;5051769;28;20045;-42
2023/01/27 06:43:35;;;;;;;7.95;3.30;;;;;;;3.58;98.50;102717.94;5051983;28;20049;-42
2023/01/27 06:46:01;;;;;;;11.88;4.30;;;;;;;3.58;98.31;102712.47;5052159;28;20041;-42
2023/01/27 06:48:32;;;;;;;15.98;5.18;;;;;;;3.60;98.44;102715.78;5051400;28;20045;-42
2023/01/27 06:50:59;;;;;;;11.70;5.22;;;;;;;3.61;98.37;102709.22;5051412;28;20049;-48
2023/01/27 06:53:26;;;;;;;11.23;5.05;;;;;;;3.60;98.49;102715.78;5051596;28;20147;-42
2023/01/27 06:55:57;;;;;;;8.45;4.85;;;;;;;3.60;98.60;102702.09;5051185;28;20376;-46
2023/01/27 06:58:24;;;;;;;9.07;5.00;;;;;;;3.55;98.12;102708.31;5051027;28;20041;-42
2023/01/27 07:00:51;;;;;;;10.93;4.60;;;;;;;3.54;98.54;102705.84;5051417;28;20052;-42
2023/01/27 07:03:18;;;;;;;12.90;5.05;;;;;;;3.49;97.96;102700.28;5051354;28;20053;-42
2023/01/27 07:05:44;;;;;;;10.68;4.95;;;;;;;3.48;98.36;102696.72;5051061;28;20387;-43
2023/01/27 07:08:11;;;;;;;8.93;5.32;;;;;;;3.46;98.27;102698.03;5054706;28;20041;-42
2023/01/27 07:10:38;;;;;;;12.95;4.82;;;;;;;3.45;98.67;102702.69;5051099;28;20051;-49
2023/01/27 07:13:12;;;;;;;11.48;4.90;;;;;;;3.45;98.27;102702.69;5051632;28;20076;-42
2023/01/27 07:15:40;;;;;;;12.18;4.93;;;;;;;3.45;98.23;102702.69;5050756;28;20048;-42
2023/01/27 07:18:08;;;;;;;9.32;5.00;;;;;;;3.45;98.23;102701.84;5051606;28;20045;-42
2023/01/27 07:20:34;;;;;;;14.80;5.32;;;;;;;3.44;98.69;102706.50;5050344;28;20053;-45
2023/01/27 07:23:04;;;;;;;11.15;4.80;;;;;;;3.44;98.44;102705.69;5050899;28;20508;-44
2023/01/27 07:25:33;;;;;;;13.30;4.03;;;;;;;3.43;98.70;102710.31;5050869;28;20053;-47
2023/01/27 07:28:01;;;;;;;9.65;4.50;;;;;;;3.43;98.72;102712.22;5050503;28;20048;-42
2023/01/27 07:30:32;;;;;;;12.70;4.50;;;;;;;3.43;98.30;102710.31;5050808;28;20119;-44
2023/01/27 07:33:08;;;;;;;12.07;4.35;;;;;;;3.45;98.59;102712.81;5042073;28;20407;-42
2023/01/27 07:35:36;;;;;;;11.13;4.70;;;;;;;3.50;98.88;102723.84;5037556;28;20056;-42
2023/01/27 07:38:03;;;;;;;10.75;5.18;;;;;;;3.51;98.82;102720.84;5044505;28;20058;-42
2023/01/27 07:40:30;;;;;;;7.00;3.88;;;;;;;3.50;98.57;102729.31;5050527;28;20037;-42
2023/01/27 07:42:58;;;;;;;10.32;4.25;;;;;;;3.47;98.59;102732.53;5050459;28;20059;-42
2023/01/27 07:45:26;;;;;;;10.77;4.57;;;;;;;3.49;98.71;102735.88;5050719;28;20036;-42
2023/01/27 07:47:52;;;;;;;11.07;4.20;;;;;;;3.49;98.86;102733.16;5050442;28;20495;-42
2023/01/27 07:50:20;;;;;;;7.88;3.80;;;;;;;3.51;98.74;102730.97;5051274;28;20044;-42
2023/01/27 07:52:47;;;;;;;7.85;3.40;;;;;;;3.54;98.93;102727.75;5047581;28;20573;-45
2023/01/27 07:55:13;;;;;;;9.80;4.03;;;;;;;3.55;98.37;102721.16;5038381;28;20486;-42
2023/01/27 07:57:41;;;;;;;12.10;3.53;;;;;;;3.55;98.85;102723.91;5046027;28;20688;-43
2023/01/27 08:00:08;;;;;;;7.88;4.05;;;;;;;3.54;98.41;102722.28;5049420;28;20071;-42
2023/01/27 08:02:35;;;;;;;9.18;3.95;;;;;;;3.57;98.52;102733.53;5048177;28;20540;-46
2023/01/27 08:05:01;;;;;;;7.57;3.88;;;;;;;3.58;98.88;102734.38;5048347;28;20041;-42
2023/01/27 08:07:31;;;;;;;11.77;4.10;;;;;;;3.60;98.46;102732.22;5033766;28;20045;-41
2023/01/27 08:09:57;;;;;;;9.43;4.53;;;;;;;3.60;98.71;102733.03;5031612;28;20077;-42
2023/01/27 08:12:24;;;;;;;7.03;3.72;;;;;;;3.63;98.74;102742.66;5048974;28;20414;-43
2023/01/27 08:14:50;;;;;;;8.85;3.47;;;;;;;3.67;98.89;102741.09;5049135;28;20049;-42
2023/01/27 08:17:17;;;;;;;7.78;3.53;;;;;;;3.69;98.58;102741.66;5048963;28;20052;-44
2023/01/27 08:19:44;;;;;;;7.57;4.60;;;;;;;3.69;98.62;102741.66;5049195;28;20064;-42
2023/01/27 08:22:10;;;;;;;7.82;3.70;;;;;;;3.69;98.83;102747.16;5049192;28;20513;-45
2023/01/27 08:24:37;;;;;;;6.38;3.90;;;;;;;3.69;98.80;102760.84;5049416;28;20384;-44
2023/01/27 08:27:04;;;;;;;7.10;3.63;;;;;;;3.71;98.99;102764.16;5031103;28;20494;-41
2023/01/27 08:29:33;;;;;;;7.35;3.85;;;;;;;3.71;98.89;102772.38;5048835;28;20045;-44
2023/01/27 08:32:00;;;;;;;7.53;3.22;;;;;;;3.71;99.04;102777.84;5049046;28;20052;-42
2023/01/27 08:34:26;;;;;;;8.77;3.30;;;;;;;3.75;98.96;102773.53;5048639;28;20053;-41
2023/01/27 08:36:53;;;;;;;8.57;3.33;;;;;;;3.77;99.00;102771.38;5051030;28;20041;-44
2023/01/27 08:39:20;;;;;;;10.52;3.88;;;;;;;3.80;98.89;102778.25;5068915;28;20049;-42
2023/01/27 08:41:47;;;;;;;6.82;3.72;;;;;;;3.81;98.93;102786.25;5061854;28;20059;-42
2023/01/27 08:44:14;;;;;;;65.50;33.40;;;;;;;3.82;98.98;102776.94;5048418;28;20417;-42
2023/01/27 08:46:40;;;;;;;8.43;4.78;;;;;;;3.84;98.66;102782.97;5048544;28;20049;-41
2023/01/27 08:49:07;;;;;;;16.83;10.30;;;;;;;3.87;98.89;102785.22;5048366;28;20041;-46
2023/01/27 08:51:34;;;;;;;12.00;6.22;;;;;;;3.91;98.88;102789.13;5048353;28;20407;-41
2023/01/27 08:54:01;;;;;;;13.13;5.45;;;;;;;3.94;99.21;102788.63;5040906;28;20048;-46
2023/01/27 08:56:29;;;;;;;10.13;4.13;;;;;;;3.94;98.54;102794.13;5050206;28;20040;-46
2023/01/27 08:58:56;;;;;;;14.10;3.97;;;;;;;3.96;98.98;102796.59;5049493;28;20049;-41
2023/01/27 09:01:23;;;;;;;10.98;4.32;;;;;;;3.94;98.90;102782.31;5048921;28;20529;-42
2023/01/27 09:03:50;;;;;;;11.60;6.82;;;;;;;3.95;98.79;102784.81;5031843;28;20063;-43
2023/01/27 09:06:17;;;;;;;8.85;3.72;;;;;;;3.96;98.87;102789.22;5048945;28;20041;-42
2023/01/27 09:09:07;;;;;;;8.23;3.67;;;;;;;3.98;98.76;102778.00;5065581;28;20406;-42
2023/01/27 09:11:31;;;;;;;6.80;3.42;;;;;;;3.98;98.81;102756.91;5068921;28;20048;-42
2023/01/27 09:13:58;;;;;;;7.90;3.60;;;;;;;3.98;98.63;102762.38;5053808;28;20051;-42
2023/01/27 09:16:25;;;;;;;9.07;3.60;;;;;;;4.00;99.11;102748.41;5060646;28;20067;-42
2023/01/27 09:18:52;;;;;;;10.52;5.30;;;;;;;4.00;98.82;102754.72;5069522;28;20087;-42
2023/01/27 09:21:19;;;;;;;10.98;4.60;;;;;;;4.04;98.66;102755.06;5069161;28;20036;-42
2023/01/27 09:23:48;;;;;;;9.95;3.28;;;;;;;4.07;98.79;102738.13;5068727;28;20082;-42
2023/01/27 09:26:15;;;;;;;5.20;3.10;;;;;;;4.12;98.38;102736.28;5069091;28;20526;-46
2023/01/27 09:28:41;;;;;;;10.23;3.70;;;;;;;4.15;98.71;102735.78;5068732;28;20056;-47
2023/01/27 09:31:08;;;;;;;9.00;4.13;;;;;;;4.16;98.76;102742.91;5068734;28;20048;-41
2023/01/27 09:33:37;;;;;;;7.13;4.00;;;;;;;4.19;98.65;102742.41;5032859;28;20057;-41
2023/01/27 09:36:13;;;;;;;9.88;4.53;;;;;;;4.27;98.57;102733.72;5038542;28;20127;-44
2023/01/27 09:39:07;;;;;;;8.95;3.63;;;;;;;4.35;98.72;102729.72;5051790;28;20048;-41
2023/01/27 09:41:39;;;;;;;12.80;3.65;;;;;;;4.41;98.39;102716.88;5048723;28;20052;-41
2023/01/27 09:44:14;;;;;;;5.43;3.00;;;;;;;4.46;98.16;102725.16;5048774;28;20558;-45
2023/01/27 09:47:09;;;;;;;5.50;3.72;;;;;;;4.51;98.37;102727.97;5048371;28;20041;-41
2023/01/27 09:50:06;;;;;;;7.13;3.88;;;;;;;4.58;98.23;102726.69;5053497;28;20049;-41
2023/01/27 09:53:04;;;;;;;11.43;4.43;;;;;;;4.69;98.34;102731.22;5038078;28;20077;-42
2023/01/27 09:55:57;;;;;;;11.10;3.75;;;;;;;4.83;97.93;102723.41;5014673;28;20061;-42
2023/01/27 09:59:06;;;;;;;8.68;3.97;;;;;;;4.93;98.01;102727.06;5045974;28;20033;-42
2023/01/27 10:01:55;;;;;;;7.60;3.65;;;;;;;4.99;97.80;102722.47;5047491;28;20053;-42
2023/01/27 10:05:03;;;;;;;8.65;2.85;;;;;;;4.99;97.75;102714.22;5048225;28;20080;-45
2023/01/27 10:07:47;;;;;;;7.80;4.10;;;;;;;4.97;97.69;102721.91;4971712;28;20086;-42
2023/01/27 10:10:28;;;;;;;5.72;2.67;;;;;;;4.94;97.67;102714.19;4970725;28;20047;-42
2023/01/27 10:13:02;;;;;;;8.15;3.95;;;;;;;4.91;97.70;102711.97;5024351;28;20055;-43
2023/01/27 10:16:04;;;;;;;6.90;2.55;;;;;;;4.89;97.78;102711.41;5052146;28;20513;-42
2023/01/27 10:18:52;;;;;;;4.40;2.35;;;;;;;4.87;97.82;102705.34;5011395;28;20057;-42
2023/01/27 10:21:42;;;;;;;5.43;2.72;;;;;;;4.86;97.78;102709.16;5052519;28;20045;-42
2023/01/27 10:24:18;;;;;;;5.85;2.97;;;;;;;4.86;97.83;102704.50;5043153;28;20071;-41
2023/01/27 10:26:58;;;;;;;4.28;2.50;;;;;;;4.86;97.81;102709.16;5051904;28;20120;-40
2023/01/27 10:29:31;;;;;;;7.35;2.70;;;;;;;4.86;97.52;102714.66;5051737;28;20110;-41
2023/01/27 10:32:08;;;;;;;4.68;3.08;;;;;;;4.86;97.67;102704.50;5051710;28;20049;-41
2023/01/27 10:34:41;;;;;;;4.10;2.30;;;;;;;4.89;97.66;102719.63;5050656;28;20044;-41
2023/01/27 10:37:29;;;;;;;8.20;2.88;;;;;;;4.92;97.54;102703.44;5054828;28;20037;-47
2023/01/27 10:40:07;;;;;;;6.20;3.15;;;;;;;4.97;97.40;102705.44;5071577;28;20459;-41
2023/01/27 10:42:57;;;;;;;6.70;3.50;;;;;;;5.02;97.29;102708.22;5031928;28;20041;-41
2023/01/27 10:45:36;;;;;;;8.13;3.08;;;;;;;5.09;97.14;102708.84;5031982;28;20120;-42
2023/01/27 10:48:48;;;;;;;6.55;2.90;;;;;;;5.14;97.24;102702.56;5029922;28;20136;-44
2023/01/27 10:51:25;;;;;;;6.75;2.92;;;;;;;5.19;97.11;102714.41;4997060;28;20105;-42
2023/01/27 10:53:57;;;;;;;8.65;3.30;;;;;;;5.23;97.14;102715.56;5030126;28;20053;-44
2023/01/27 10:56:52;;;;;;;5.50;2.80;;;;;;;5.24;96.94;102710.91;5030468;28;20399;-41
2023/01/27 10:59:44;;;;;;;5.20;2.58;;;;;;;5.23;96.86;102715.56;5049403;28;20071;-41
2023/01/27 11:02:55;;;;;;;3.80;1.98;;;;;;;5.24;96.82;102706.22;5050268;28;20422;-41
2023/01/27 11:05:52;;;;;;;5.70;2.67;;;;;;;5.24;96.57;102700.72;5050610;28;20049;-41
2023/01/27 11:08:23;;;;;;;5.15;2.72;;;;;;;5.22;96.44;102713.88;5062793;28;20402;-41
2023/01/27 11:13:41;;;;;;;5.47;2.90;;;;;;;5.22;96.51;102713.88;5069831;28;20048;-41
2023/01/27 11:16:15;;;;;;;7.22;3.33;;;;;;;5.29;96.71;102709.03;5052289;28;20045;-49
2023/01/27 11:18:44;;;;;;;7.97;3.22;;;;;;;5.35;96.70;102718.94;5050023;28;20049;-41
2023/01/27 11:21:20;;;;;;;8.80;3.70;;;;;;;5.41;96.48;102726.13;5050013;28;20047;-41
2023/01/27 11:23:52;;;;;;;7.28;4.00;;;;;;;5.45;96.19;102730.00;5050126;28;20045;-41
2023/01/27 11:26:35;;;;;;;7.43;3.70;;;;;;;5.47;96.11;102738.00;5050304;28;20075;-43
2023/01/27 11:29:08;;;;;;;5.25;3.15;;;;;;;5.42;95.98;102740.72;5050070;28;20049;-41
2023/01/27 11:31:52;;;;;;;5.95;3.03;;;;;;;5.40;95.99;102743.69;5051182;28;20049;-41
2023/01/27 11:34:26;;;;;;;10.63;3.22;;;;;;;5.40;96.30;102727.22;5050092;28;20141;-41
2023/01/27 11:36:53;;;;;;;6.63;3.05;;;;;;;5.43;96.28;102723.94;5052068;28;20083;-41
2023/01/27 11:39:20;;;;;;;7.75;3.15;;;;;;;5.45;96.12;102724.50;5069861;28;20060;-42
2023/01/27 11:41:53;;;;;;;5.95;3.38;;;;;;;5.53;96.00;102731.47;5069672;28;20063;-44
2023/01/27 11:44:23;;;;;;;8.65;3.40;;;;;;;5.58;95.82;102722.41;5069830;28;20059;-41
2023/01/27 11:46:51;;;;;;;11.80;4.03;;;;;;;5.60;95.71;102726.56;5069633;28;20053;-41
2023/01/27 11:49:30;;;;;;;5.30;3.72;;;;;;;5.63;95.72;102730.69;5059031;28;20044;-42
2023/01/27 11:52:04;;;;;;;11.48;3.42;;;;;;;5.63;95.77;102731.53;5049894;28;20056;-46
2023/01/27 11:54:47;;;;;;;10.68;3.50;;;;;;;5.62;95.28;102734.53;5049506;28;20136;-41
2023/01/27 11:57:20;;;;;;;8.38;3.42;;;;;;;5.61;95.45;102727.41;5049826;28;20037;-45
2023/01/27 11:59:54;;;;;;;5.75;3.33;;;;;;;5.60;95.16;102721.06;5049400;28;20059;-41
2023/01/27 12:02:35;;;;;;;8.90;3.90;;;;;;;5.61;95.17;102724.66;5048950;28;20048;-41
2023/01/27 12:05:13;;;;;;;12.15;4.15;;;;;;;5.64;95.16;102721.38;5032852;28;20046;-42
2023/01/27 12:07:58;;;;;;;7.93;2.75;;;;;;;5.67;95.17;102720.81;5041311;28;20069;-41
2023/01/27 12:10:31;;;;;;;11.13;3.17;;;;;;;5.70;95.13;102721.13;5049165;28;20050;-41
2023/01/27 12:13:19;;;;;;;6.47;3.42;;;;;;;5.79;95.19;102724.22;5048992;28;20045;-41
2023/01/27 12:15:59;;;;;;;13.85;3.15;;;;;;;5.85;94.86;102714.94;5048503;28;20044;-41
2023/01/27 12:18:30;;;;;;;7.43;3.50;;;;;;;5.87;94.66;102715.50;5048240;28;20041;-41